createdAt,value
2023-12-18T00:00:43.565Z,14.40
2023-12-18T00:03:50.738Z,14.70
2023-12-18T00:06:57.792Z,17.00
2023-12-18T00:10:04.380Z,15.60
2023-12-18T00:13:10.732Z,15.30
2023-12-18T00:16:18.162Z,15.00
2023-12-18T00:19:24.804Z,13.90
2023-12-18T00:22:31.635Z,14.40
2023-12-18T00:25:39.587Z,18.20
2023-12-18T00:28:46.469Z,16.10
2023-12-18T00:31:52.970Z,14.60
2023-12-18T00:35:00.164Z,14.80
2023-12-18T00:38:07.539Z,17.80
2023-12-18T00:41:14.708Z,13.60
2023-12-18T00:44:22.691Z,15.50
2023-12-18T00:47:29.957Z,18.80
2023-12-18T00:50:37.133Z,16.00
2023-12-18T00:53:43.422Z,16.00
2023-12-18T00:56:50.101Z,16.40
2023-12-18T00:59:57.741Z,17.30
2023-12-18T01:03:04.371Z,16.60
2023-12-18T01:06:11.010Z,15.80
2023-12-18T01:09:17.404Z,17.60
2023-12-18T01:12:24.033Z,15.10
2023-12-18T01:15:30.585Z,14.20
2023-12-18T01:18:36.937Z,17.80
2023-12-18T01:21:43.617Z,15.50
2023-12-18T01:24:50.122Z,15.80
2023-12-18T01:27:56.302Z,17.40
2023-12-18T01:31:02.806Z,18.00
2023-12-18T01:34:10.142Z,15.40
2023-12-18T01:37:16.598Z,16.50
2023-12-18T01:40:23.389Z,18.20
2023-12-18T01:43:30.427Z,17.50
2023-12-18T01:46:37.737Z,17.70
2023-12-18T01:49:44.652Z,15.40
2023-12-18T01:52:51.464Z,17.20
2023-12-18T01:55:59.167Z,19.00
2023-12-18T01:59:06.020Z,18.10
2023-12-18T02:02:12.908Z,16.20
2023-12-18T02:05:19.470Z,16.70
2023-12-18T02:08:26.577Z,17.50
2023-12-18T02:11:33.040Z,18.70
2023-12-18T02:14:39.539Z,17.60
2023-12-18T02:17:46.484Z,16.10
2023-12-18T02:20:53.119Z,14.20
2023-12-18T02:23:59.371Z,16.60
2023-12-18T02:27:06.138Z,16.90
2023-12-18T02:30:17.404Z,17.40
2023-12-18T02:33:27.170Z,15.80
2023-12-18T02:36:38.886Z,18.20
2023-12-18T02:40:01.212Z,15.90
2023-12-18T02:43:12.838Z,17.30
2023-12-18T02:46:31.984Z,19.40
2023-12-18T02:49:48.500Z,17.40
2023-12-18T02:53:07.975Z,15.30
2023-12-18T02:56:42.580Z,16.40
2023-12-18T03:00:37.411Z,17.30
2023-12-18T03:03:46.944Z,18.00
2023-12-18T03:06:53.472Z,16.40
2023-12-18T03:10:00.530Z,18.10
2023-12-18T03:13:07.611Z,20.60
2023-12-18T03:16:14.502Z,17.60
2023-12-18T03:19:21.466Z,18.50
2023-12-18T03:22:28.033Z,19.60
2023-12-18T03:25:34.341Z,19.40
2023-12-18T03:28:40.968Z,21.80
2023-12-18T03:31:47.344Z,20.00
2023-12-18T03:34:54.058Z,19.50
2023-12-18T03:38:00.479Z,19.30
2023-12-18T03:41:07.498Z,19.20
2023-12-18T03:44:13.741Z,19.70
2023-12-18T03:47:20.343Z,18.50
2023-12-18T03:50:26.708Z,17.90
2023-12-18T03:53:34.498Z,19.00
2023-12-18T03:56:41.378Z,18.90
2023-12-18T03:59:47.624Z,19.40
2023-12-18T04:02:54.034Z,16.60
2023-12-18T04:06:00.607Z,19.00
2023-12-18T04:09:07.438Z,21.60
2023-12-18T04:12:13.945Z,21.30
2023-12-18T04:15:20.297Z,19.20
2023-12-18T04:18:26.833Z,20.40
2023-12-18T04:21:33.263Z,20.00
2023-12-18T04:24:39.444Z,19.10
2023-12-18T04:27:46.213Z,18.10
2023-12-18T04:30:52.863Z,19.30
2023-12-18T04:33:59.194Z,19.70
2023-12-18T04:37:08.703Z,18.50
2023-12-18T04:40:17.590Z,18.70
2023-12-18T04:43:23.770Z,19.80
2023-12-18T04:46:30.103Z,19.30
2023-12-18T04:49:36.377Z,18.50
2023-12-18T04:52:43.725Z,19.90
2023-12-18T04:55:50.501Z,20.00
2023-12-18T04:58:57.075Z,21.90
2023-12-18T05:02:03.333Z,22.70
2023-12-18T05:05:10.316Z,20.20
2023-12-18T05:08:16.722Z,20.00
2023-12-18T05:11:23.939Z,21.10
2023-12-18T05:14:30.528Z,20.30
2023-12-18T05:17:36.789Z,19.80
2023-12-18T05:20:43.396Z,21.40
2023-12-18T05:23:51.047Z,19.90
2023-12-18T05:26:57.620Z,20.90
2023-12-18T05:30:05.522Z,25.60
2023-12-18T05:33:12.335Z,21.50
2023-12-18T05:36:18.921Z,23.20
2023-12-18T05:39:25.427Z,20.30
2023-12-18T05:42:31.894Z,22.80
2023-12-18T05:45:38.498Z,27.20
2023-12-18T05:48:44.854Z,21.30
2023-12-18T05:51:51.740Z,20.90
2023-12-18T05:54:57.974Z,23.50
2023-12-18T05:58:05.261Z,21.70
2023-12-18T06:01:11.715Z,23.70
2023-12-18T06:04:18.548Z,22.70
2023-12-18T06:07:25.068Z,23.80
2023-12-18T06:10:31.357Z,23.40
2023-12-18T06:13:40.427Z,22.60
2023-12-18T06:16:47.091Z,25.10
2023-12-18T06:19:53.496Z,26.10
2023-12-18T06:23:00.151Z,20.80
2023-12-18T06:26:07.632Z,21.70
2023-12-18T06:29:14.178Z,24.20
2023-12-18T06:32:20.470Z,23.90
2023-12-18T06:35:27.210Z,26.30
2023-12-18T06:38:33.696Z,22.80
2023-12-18T06:41:39.988Z,25.10
2023-12-18T06:44:46.957Z,22.00
2023-12-18T06:47:53.662Z,22.30
2023-12-18T06:51:00.209Z,25.60
2023-12-18T06:54:07.559Z,26.30
2023-12-18T06:57:14.516Z,24.50
2023-12-18T07:00:31.852Z,26.00
2023-12-18T07:03:46.306Z,23.40
2023-12-18T07:06:53.176Z,24.10
2023-12-18T07:09:59.529Z,25.30
2023-12-18T07:13:06.551Z,25.10
2023-12-18T07:16:21.313Z,26.30
2023-12-18T07:19:28.055Z,23.10
2023-12-18T07:22:36.533Z,26.60
2023-12-18T07:25:43.651Z,24.40
2023-12-18T07:28:50.140Z,22.70
2023-12-18T07:31:57.829Z,23.20
2023-12-18T07:35:04.478Z,24.90
2023-12-18T07:38:11.848Z,26.00
2023-12-18T07:41:22.143Z,26.00
2023-12-18T07:44:28.637Z,25.20
2023-12-18T07:47:35.296Z,21.90
2023-12-18T07:50:41.893Z,25.60
2023-12-18T07:53:48.434Z,26.90
2023-12-18T07:56:55.205Z,25.70
2023-12-18T08:00:01.711Z,25.10
2023-12-18T08:03:10.342Z,26.50
2023-12-18T08:06:18.291Z,24.90
2023-12-18T08:09:24.979Z,23.10
2023-12-18T08:12:31.648Z,24.20
2023-12-18T08:15:40.331Z,27.00
2023-12-18T08:18:48.820Z,25.80
2023-12-18T08:21:56.150Z,27.10
2023-12-18T08:25:04.107Z,27.20
2023-12-18T08:28:12.703Z,26.90
2023-12-18T08:31:19.606Z,25.20
2023-12-18T08:34:28.156Z,26.80
2023-12-18T08:37:34.818Z,24.40
2023-12-18T08:40:41.804Z,25.80
2023-12-18T08:43:55.852Z,27.00
2023-12-18T08:47:10.572Z,24.00
2023-12-18T08:50:16.828Z,23.70
2023-12-18T08:53:23.175Z,24.10
2023-12-18T08:56:29.580Z,24.70
2023-12-18T08:59:36.381Z,26.50
2023-12-18T09:02:43.185Z,24.50
2023-12-18T09:05:50.154Z,26.40
2023-12-18T09:08:56.520Z,25.90
2023-12-18T09:12:02.890Z,26.30
2023-12-18T09:15:11.606Z,26.30
2023-12-18T09:18:18.183Z,30.00
2023-12-18T09:21:32.210Z,24.90
2023-12-18T09:24:38.777Z,28.40
2023-12-18T09:27:45.124Z,25.10
2023-12-18T09:30:51.586Z,27.80
2023-12-18T09:33:58.159Z,27.80
2023-12-18T09:37:04.189Z,24.80
2023-12-18T09:40:12.897Z,27.30
2023-12-18T09:43:21.875Z,27.30
2023-12-18T09:46:28.414Z,28.20
2023-12-18T09:49:35.430Z,24.60
2023-12-18T09:52:44.691Z,25.50
2023-12-18T09:55:53.215Z,24.80
2023-12-18T09:58:59.910Z,27.70
2023-12-18T10:02:07.440Z,24.40
2023-12-18T10:05:13.882Z,26.70
2023-12-18T10:08:19.902Z,26.50
2023-12-18T10:11:27.350Z,27.60
2023-12-18T10:14:33.683Z,28.30
2023-12-18T10:17:41.487Z,24.10
2023-12-18T10:20:51.030Z,27.80
2023-12-18T10:23:57.419Z,25.20
2023-12-18T10:27:03.696Z,23.50
2023-12-18T10:30:13.489Z,22.90
2023-12-18T10:33:21.197Z,24.90
2023-12-18T10:36:27.450Z,22.30
2023-12-18T10:39:34.438Z,21.50
2023-12-18T10:42:43.604Z,24.30
2023-12-18T10:45:50.496Z,24.50
2023-12-18T10:48:56.633Z,23.00
2023-12-18T10:52:03.685Z,20.50
2023-12-18T10:55:11.685Z,22.20
2023-12-18T10:58:20.490Z,23.80
2023-12-18T11:01:27.583Z,23.70
2023-12-18T11:04:37.285Z,25.80
2023-12-18T11:07:44.455Z,22.10
2023-12-18T11:10:50.946Z,23.80
2023-12-18T11:14:09.004Z,27.10
2023-12-18T11:17:23.153Z,25.90
2023-12-18T11:20:35.192Z,29.30
2023-12-18T11:23:43.568Z,26.80
2023-12-18T11:26:50.386Z,31.80
2023-12-18T11:29:58.876Z,30.20
2023-12-18T11:33:08.106Z,31.90
2023-12-18T11:36:14.460Z,31.00
2023-12-18T11:39:21.735Z,30.10
2023-12-18T11:42:50.288Z,29.30
2023-12-18T11:46:14.570Z,29.30
2023-12-18T11:49:24.156Z,29.90
2023-12-18T11:52:30.516Z,29.30
2023-12-18T11:55:55.418Z,31.40
2023-12-18T11:59:01.882Z,30.00
2023-12-18T12:02:08.174Z,32.00
2023-12-18T12:05:15.582Z,31.30
2023-12-18T12:08:22.495Z,29.60
2023-12-18T12:11:30.111Z,26.60
2023-12-18T12:14:36.292Z,27.10
2023-12-18T12:17:42.581Z,24.80
2023-12-18T12:20:49.272Z,26.20
2023-12-18T12:23:55.388Z,26.40
2023-12-18T12:27:01.850Z,29.00
2023-12-18T12:30:10.395Z,26.40
2023-12-18T12:33:17.771Z,26.80
2023-12-18T12:36:25.536Z,29.90
2023-12-18T12:39:33.921Z,28.90
2023-12-18T12:42:42.651Z,29.90
2023-12-18T12:45:50.687Z,28.50
2023-12-18T12:48:56.901Z,25.30
2023-12-18T12:52:04.194Z,27.20
2023-12-18T12:55:11.937Z,24.70
2023-12-18T12:58:18.323Z,25.60
2023-12-18T13:01:25.682Z,26.60
2023-12-18T13:04:32.211Z,24.50
2023-12-18T13:07:38.709Z,23.00
2023-12-18T13:10:44.784Z,25.50
2023-12-18T13:13:52.835Z,26.10
2023-12-18T13:16:59.907Z,47.70
2023-12-18T13:20:15.792Z,29.00
2023-12-18T13:23:25.643Z,25.10
2023-12-18T13:26:33.458Z,23.90
2023-12-18T13:29:42.875Z,26.50
2023-12-18T13:32:49.774Z,26.10
2023-12-18T13:35:58.169Z,30.30
2023-12-18T13:39:04.552Z,27.50
2023-12-18T13:42:11.951Z,27.70
2023-12-18T13:45:20.329Z,25.30
2023-12-18T13:48:26.569Z,25.60
2023-12-18T13:51:33.946Z,26.60
2023-12-18T13:54:41.645Z,23.30
2023-12-18T13:57:49.368Z,21.50
2023-12-18T14:00:55.861Z,23.40
2023-12-18T14:04:01.936Z,25.80
2023-12-18T14:07:08.582Z,25.60
2023-12-18T14:10:14.484Z,24.90
2023-12-18T14:13:20.720Z,25.70
2023-12-18T14:16:26.688Z,28.10
2023-12-18T14:19:33.109Z,26.00
2023-12-18T14:22:39.551Z,23.70
2023-12-18T14:25:47.070Z,27.10
2023-12-18T14:28:54.704Z,25.70
2023-12-18T14:32:00.960Z,29.40
2023-12-18T14:35:07.953Z,27.20
2023-12-18T14:38:18.405Z,29.60
2023-12-18T14:41:24.582Z,26.50
2023-12-18T14:44:35.641Z,29.70
2023-12-18T14:47:42.173Z,31.10
2023-12-18T14:50:48.042Z,33.40
2023-12-18T14:53:54.887Z,27.40
2023-12-18T14:57:01.165Z,28.30
2023-12-18T15:00:08.531Z,29.50
2023-12-18T15:03:14.693Z,32.30
2023-12-18T15:06:21.016Z,27.60
2023-12-18T15:09:29.522Z,29.50
2023-12-18T15:12:36.099Z,28.70
2023-12-18T15:15:42.252Z,29.80
2023-12-18T15:18:48.705Z,29.10
2023-12-18T15:21:54.999Z,28.60
2023-12-18T15:25:01.106Z,26.80
2023-12-18T15:28:09.609Z,25.60
2023-12-18T15:31:15.877Z,28.30
2023-12-18T15:34:21.857Z,25.40
2023-12-18T15:37:28.201Z,26.80
2023-12-18T15:40:35.011Z,25.40
2023-12-18T15:43:40.813Z,28.20
2023-12-18T15:46:47.026Z,24.90
2023-12-18T15:49:53.104Z,27.80
2023-12-18T15:52:59.212Z,25.60
2023-12-18T15:56:05.199Z,27.30
2023-12-18T15:59:11.088Z,25.60
2023-12-18T16:02:17.085Z,27.40
2023-12-18T16:05:23.137Z,23.40
2023-12-18T16:08:29.068Z,25.30
2023-12-18T16:11:34.997Z,26.10
2023-12-18T16:14:41.100Z,25.50
2023-12-18T16:17:48.241Z,25.60
2023-12-18T16:20:54.620Z,27.20
2023-12-18T16:24:00.529Z,27.00
2023-12-18T16:27:08.179Z,27.80
2023-12-18T16:30:15.717Z,26.80
2023-12-18T16:33:22.165Z,27.40
2023-12-18T16:36:29.161Z,27.40
2023-12-18T16:39:36.007Z,29.00
2023-12-18T16:42:42.830Z,30.90
2023-12-18T16:45:49.664Z,28.90
2023-12-18T16:48:56.437Z,27.00
2023-12-18T16:52:02.773Z,25.90
2023-12-18T16:55:13.090Z,25.10
2023-12-18T16:58:21.521Z,25.00
2023-12-18T17:01:27.397Z,25.20
2023-12-18T17:04:33.865Z,24.60
2023-12-18T17:07:40.077Z,25.90
2023-12-18T17:10:46.672Z,24.90
2023-12-18T17:13:52.410Z,23.40
2023-12-18T17:16:58.708Z,22.70
2023-12-18T17:20:06.562Z,21.60
2023-12-18T17:23:12.678Z,23.60
2023-12-18T17:26:18.691Z,21.40
2023-12-18T17:29:25.227Z,22.80
2023-12-18T17:32:31.855Z,21.90
2023-12-18T17:35:38.304Z,22.60
2023-12-18T17:38:44.477Z,23.10
2023-12-18T17:41:50.544Z,22.20
2023-12-18T17:44:56.640Z,22.30
2023-12-18T17:48:02.730Z,20.20
2023-12-18T17:51:09.624Z,19.50
2023-12-18T17:54:15.573Z,20.70
2023-12-18T17:57:21.836Z,20.80
2023-12-18T18:00:28.664Z,20.30
2023-12-18T18:03:36.266Z,19.50
2023-12-18T18:06:42.302Z,24.40
2023-12-18T18:09:48.956Z,21.00
2023-12-18T18:12:55.313Z,21.10
2023-12-18T18:16:07.249Z,20.00
2023-12-18T18:19:49.812Z,17.90
2023-12-18T18:23:01.517Z,20.80
2023-12-18T18:26:17.279Z,18.60
2023-12-18T18:29:29.528Z,17.40
2023-12-18T18:32:40.168Z,19.10
2023-12-18T18:35:52.480Z,17.30
2023-12-18T18:39:07.404Z,17.80
2023-12-18T18:42:17.653Z,21.00
2023-12-18T18:45:29.739Z,17.90
2023-12-18T18:48:42.702Z,17.10
2023-12-18T18:51:55.328Z,19.20
2023-12-18T18:55:07.955Z,19.20
2023-12-18T18:58:18.090Z,17.80
2023-12-18T19:01:29.600Z,17.30
2023-12-18T19:04:41.037Z,17.10
2023-12-18T19:07:53.801Z,17.40
2023-12-18T19:11:05.555Z,17.70
2023-12-18T19:14:16.996Z,16.40
2023-12-18T19:17:27.294Z,18.40
2023-12-18T19:20:40.469Z,16.70
2023-12-18T19:23:51.057Z,18.40
2023-12-18T19:27:01.834Z,18.50
2023-12-18T19:30:15.697Z,17.80
2023-12-18T19:33:26.567Z,17.40
2023-12-18T19:36:38.093Z,28.00
2023-12-18T19:39:47.727Z,18.70
2023-12-18T19:42:58.799Z,17.00
2023-12-18T19:46:09.417Z,19.30
2023-12-18T19:49:21.861Z,18.90
2023-12-18T19:52:31.897Z,18.30
2023-12-18T19:55:44.072Z,19.00
2023-12-18T19:58:53.689Z,20.90
2023-12-18T20:02:07.595Z,23.20
2023-12-18T20:05:18.768Z,25.80
2023-12-18T20:08:28.910Z,30.80
2023-12-18T20:11:39.317Z,21.90
2023-12-18T20:14:49.436Z,19.90
2023-12-18T20:18:01.759Z,21.60
2023-12-18T20:21:16.305Z,19.00
2023-12-18T20:24:28.339Z,17.80
2023-12-18T20:27:41.575Z,19.40
2023-12-18T20:30:52.729Z,16.40
2023-12-18T20:34:03.206Z,17.90
2023-12-18T20:37:15.430Z,16.70
2023-12-18T20:40:26.231Z,16.90
2023-12-18T20:43:38.223Z,15.40
2023-12-18T20:47:03.498Z,16.00
2023-12-18T20:50:31.518Z,20.20
2023-12-18T21:14:22.575Z,17.90
2023-12-18T21:18:05.501Z,18.10
2023-12-18T21:21:38.817Z,17.80
2023-12-18T21:25:19.764Z,15.80
2023-12-18T21:32:07.277Z,14.00
2023-12-18T21:35:20.732Z,17.40
2023-12-18T21:38:26.955Z,16.20
2023-12-18T21:41:33.318Z,17.90
2023-12-18T21:44:39.578Z,18.50
2023-12-18T21:47:45.943Z,18.20
2023-12-18T21:50:52.036Z,15.10
2023-12-18T21:53:57.913Z,15.60
2023-12-18T21:57:03.853Z,17.70
2023-12-18T22:00:11.776Z,20.90
2023-12-18T22:03:19.609Z,19.50
2023-12-18T22:06:25.794Z,21.40
2023-12-18T22:09:31.656Z,19.60
2023-12-18T22:12:38.182Z,19.90
2023-12-18T22:15:44.457Z,21.30
2023-12-18T22:18:51.205Z,19.10
2023-12-18T22:21:57.509Z,22.70
2023-12-18T22:25:03.727Z,24.20
2023-12-18T22:28:10.000Z,20.50
2023-12-18T22:31:16.151Z,23.70
2023-12-18T22:34:22.131Z,20.20
2023-12-18T22:37:28.282Z,19.80
2023-12-18T22:40:34.173Z,20.60
2023-12-18T22:43:40.191Z,21.70
2023-12-18T22:46:46.249Z,21.60
2023-12-18T22:49:52.480Z,19.90
2023-12-18T22:52:59.246Z,23.00
2023-12-18T22:56:07.862Z,21.50
2023-12-18T22:59:13.678Z,22.70
2023-12-18T23:02:19.543Z,26.00
2023-12-18T23:05:25.441Z,23.90
2023-12-18T23:08:31.871Z,25.80
2023-12-18T23:11:37.763Z,25.80
2023-12-18T23:14:43.526Z,23.20
2023-12-18T23:17:49.575Z,26.60
2023-12-18T23:20:55.925Z,25.70
2023-12-18T23:24:02.598Z,24.00
2023-12-18T23:27:11.376Z,23.20
2023-12-18T23:30:17.587Z,25.90
2023-12-18T23:33:28.383Z,24.20
2023-12-18T23:36:37.745Z,26.80
2023-12-18T23:39:45.513Z,24.30
2023-12-18T23:42:51.431Z,27.30
2023-12-18T23:45:57.294Z,23.30
2023-12-18T23:49:03.348Z,24.50
2023-12-18T23:52:09.550Z,26.50
2023-12-18T23:55:16.058Z,26.50
2023-12-18T23:58:22.125Z,24.50
